createdAt,value
2018-04-15T00:00:45.877Z,960.89
2018-04-15T00:01:45.813Z,960.91
2018-04-15T00:02:45.751Z,960.88
2018-04-15T00:03:45.687Z,960.86
2018-04-15T00:04:45.620Z,960.84
2018-04-15T00:05:45.570Z,960.81
2018-04-15T00:06:45.497Z,960.88
2018-04-15T00:07:45.436Z,960.87
2018-04-15T00:08:45.371Z,960.84
2018-04-15T00:09:45.326Z,960.86
2018-04-15T00:10:45.259Z,960.90
2018-04-15T00:11:45.183Z,960.88
2018-04-15T00:12:45.124Z,960.93
2018-04-15T00:13:45.071Z,960.92
2018-04-15T00:14:44.993Z,960.91
2018-04-15T00:15:44.928Z,960.90
2018-04-15T00:16:44.868Z,960.88
2018-04-15T00:17:44.802Z,960.90
2018-04-15T00:18:44.740Z,960.89
2018-04-15T00:19:44.686Z,960.91
2018-04-15T00:20:44.612Z,960.90
2018-04-15T00:21:44.550Z,960.88
2018-04-15T00:22:44.493Z,960.87
2018-04-15T00:23:44.424Z,960.84
2018-04-15T00:24:44.364Z,960.86
2018-04-15T00:25:44.298Z,960.90
2018-04-15T00:26:44.245Z,960.90
2018-04-15T00:27:44.187Z,960.87
2018-04-15T00:28:44.110Z,960.85
2018-04-15T00:29:44.055Z,960.87
2018-04-15T00:30:43.987Z,960.89
2018-04-15T00:31:43.918Z,960.84
2018-04-15T00:32:43.869Z,960.91
2018-04-15T00:33:43.792Z,960.95
2018-04-15T00:34:43.729Z,960.94
2018-04-15T00:35:43.686Z,960.91
2018-04-15T00:36:43.603Z,960.89
2018-04-15T00:37:43.539Z,960.86
2018-04-15T00:38:43.487Z,960.84
2018-04-15T00:39:43.411Z,960.89
2018-04-15T00:40:43.348Z,960.85
2018-04-15T00:41:43.288Z,960.87
2018-04-15T00:42:43.226Z,960.86
2018-04-15T00:43:43.168Z,960.90
2018-04-15T00:44:43.095Z,960.81
2018-04-15T00:45:43.031Z,960.86
2018-04-15T00:46:42.994Z,960.87
2018-04-15T00:47:42.902Z,960.83
2018-04-15T00:48:42.840Z,960.84
2018-04-15T00:49:42.776Z,960.85
2018-04-15T00:50:42.713Z,960.80
2018-04-15T00:51:42.667Z,960.77
2018-04-15T00:52:42.588Z,960.77
2018-04-15T00:53:42.521Z,960.73
2018-04-15T00:54:42.459Z,960.73
2018-04-15T00:55:42.394Z,960.77
2018-04-15T00:56:42.332Z,960.74
2018-04-15T00:57:42.269Z,960.71
2018-04-15T00:58:42.204Z,960.73
2018-04-15T00:59:42.146Z,960.75
2018-04-15T01:00:42.079Z,960.76
2018-04-15T01:01:42.015Z,960.75
2018-04-15T01:02:41.951Z,960.71
2018-04-15T01:03:41.888Z,960.66
2018-04-15T01:04:41.825Z,960.67
2018-04-15T01:05:41.762Z,960.67
2018-04-15T01:06:41.701Z,960.68
2018-04-15T01:07:41.631Z,960.71
2018-04-15T01:08:41.570Z,960.72
2018-04-15T01:09:41.506Z,960.72
2018-04-15T01:10:41.445Z,960.73
2018-04-15T01:11:41.378Z,960.75
2018-04-15T01:12:41.314Z,960.76
2018-04-15T01:13:41.252Z,960.75
2018-04-15T01:14:41.193Z,960.74
2018-04-15T01:15:41.125Z,960.71
2018-04-15T01:16:41.061Z,960.72
2018-04-15T01:17:40.995Z,960.69
2018-04-15T01:18:40.940Z,960.74
2018-04-15T01:19:40.871Z,960.73
2018-04-15T01:20:40.807Z,960.74
2018-04-15T01:21:40.742Z,960.73
2018-04-15T01:22:40.691Z,960.70
2018-04-15T01:23:40.617Z,960.68
2018-04-15T01:24:40.548Z,960.66
2018-04-15T01:25:40.489Z,960.66
2018-04-15T01:26:40.426Z,960.66
2018-04-15T01:27:40.359Z,960.60
2018-04-15T01:28:40.298Z,960.64
2018-04-15T01:29:40.232Z,960.62
2018-04-15T01:30:40.168Z,960.62
2018-04-15T01:31:40.105Z,960.61
2018-04-15T01:32:40.042Z,960.64
2018-04-15T01:33:39.977Z,960.68
2018-04-15T01:34:39.915Z,960.67
2018-04-15T01:35:39.851Z,960.69
2018-04-15T01:36:39.787Z,960.66
2018-04-15T01:37:39.722Z,960.63
2018-04-15T01:38:39.659Z,960.68
2018-04-15T01:39:39.596Z,960.69
2018-04-15T01:40:39.532Z,960.72
2018-04-15T01:41:39.471Z,960.69
2018-04-15T01:42:39.405Z,960.75
2018-04-15T01:43:39.340Z,960.71
2018-04-15T01:44:39.275Z,960.67
2018-04-15T01:45:39.211Z,960.65
2018-04-15T01:46:39.147Z,960.62
2018-04-15T01:47:39.085Z,960.64
2018-04-15T01:48:39.024Z,960.62
2018-04-15T01:49:38.958Z,960.62
2018-04-15T01:50:38.900Z,960.64
2018-04-15T01:51:38.828Z,960.63
2018-04-15T01:52:38.765Z,960.61
2018-04-15T01:53:38.696Z,960.60
2018-04-15T01:54:38.638Z,960.58
2018-04-15T01:55:38.575Z,960.59
2018-04-15T01:56:38.507Z,960.57
2018-04-15T01:57:38.442Z,960.55
2018-04-15T01:58:38.384Z,960.50
2018-04-15T01:59:38.316Z,960.50
2018-04-15T02:00:38.254Z,960.48
2018-04-15T02:01:38.189Z,960.48
2018-04-15T02:02:38.128Z,960.48
2018-04-15T02:03:38.062Z,960.45
2018-04-15T02:04:37.997Z,960.43
2018-04-15T02:05:37.951Z,960.42
2018-04-15T02:06:37.866Z,960.42
2018-04-15T02:07:37.826Z,960.38
2018-04-15T02:08:37.744Z,960.40
2018-04-15T02:09:37.675Z,960.42
2018-04-15T02:10:37.665Z,960.42
2018-04-15T02:11:37.550Z,960.40
2018-04-15T02:12:37.493Z,960.40
2018-04-15T02:13:37.428Z,960.40
2018-04-15T02:14:37.366Z,960.38
2018-04-15T02:15:37.314Z,960.37
2018-04-15T02:16:37.233Z,960.40
2018-04-15T02:17:37.170Z,960.36
2018-04-15T02:18:37.113Z,960.32
2018-04-15T02:19:37.040Z,960.33
2018-04-15T02:20:36.976Z,960.30
2018-04-15T02:21:36.914Z,960.29
2018-04-15T02:22:36.889Z,960.27
2018-04-15T02:23:36.785Z,960.28
2018-04-15T02:24:36.724Z,960.28
2018-04-15T02:25:36.656Z,960.27
2018-04-15T02:26:36.592Z,960.24
2018-04-15T02:27:36.528Z,960.26
2018-04-15T02:28:36.464Z,960.24
2018-04-15T02:29:36.410Z,960.25
2018-04-15T02:30:36.334Z,960.22
2018-04-15T02:31:36.273Z,960.26
2018-04-15T02:32:36.213Z,960.26
2018-04-15T02:33:36.143Z,960.26
2018-04-15T02:34:36.107Z,960.25
2018-04-15T02:35:36.026Z,960.27
2018-04-15T02:36:35.952Z,960.26
2018-04-15T02:37:35.890Z,960.27
2018-04-15T02:38:35.843Z,960.26
2018-04-15T02:39:35.757Z,960.25
2018-04-15T02:40:35.693Z,960.23
2018-04-15T02:41:35.635Z,960.16
2018-04-15T02:42:35.566Z,960.14
2018-04-15T02:43:35.504Z,960.09
2018-04-15T02:44:35.441Z,960.10
2018-04-15T02:45:35.377Z,960.08
2018-04-15T02:46:35.311Z,960.07
2018-04-15T02:47:35.247Z,960.04
2018-04-15T02:48:35.184Z,960.10
2018-04-15T02:49:35.123Z,960.03
2018-04-15T02:50:35.055Z,960.07
2018-04-15T02:51:34.992Z,960.01
2018-04-15T02:52:34.927Z,960.02
2018-04-15T02:53:34.862Z,960.03
2018-04-15T02:54:34.798Z,960.00
2018-04-15T02:55:34.734Z,959.97
2018-04-15T02:56:34.674Z,959.99
2018-04-15T02:57:34.605Z,959.90
2018-04-15T02:58:34.596Z,959.94
2018-04-15T02:59:34.478Z,959.87
2018-04-15T03:00:34.410Z,959.85
2018-04-15T03:01:34.347Z,959.86
2018-04-15T03:02:34.288Z,959.89
2018-04-15T03:03:34.223Z,959.84
2018-04-15T03:04:34.157Z,959.84
2018-04-15T03:05:34.092Z,959.84
2018-04-15T03:06:34.027Z,959.84
2018-04-15T03:07:33.964Z,959.84
2018-04-15T03:08:33.900Z,959.80
2018-04-15T03:09:33.834Z,959.85
2018-04-15T03:10:33.771Z,959.81
2018-04-15T03:11:33.706Z,959.77
2018-04-15T03:12:33.642Z,959.77
2018-04-15T03:13:33.577Z,959.74
2018-04-15T03:14:33.517Z,959.70
2018-04-15T03:15:33.450Z,959.65
2018-04-15T03:16:33.384Z,959.68
2018-04-15T03:17:33.323Z,959.65
2018-04-15T03:18:33.256Z,959.66
2018-04-15T03:19:33.191Z,959.67
2018-04-15T03:20:33.129Z,959.67
2018-04-15T03:21:33.063Z,959.63
2018-04-15T03:22:32.998Z,959.62
2018-04-15T03:23:32.935Z,959.60
2018-04-15T03:24:32.877Z,959.61
2018-04-15T03:25:32.807Z,959.64
2018-04-15T03:26:32.740Z,959.64
2018-04-15T03:27:32.678Z,959.65
2018-04-15T03:28:32.613Z,959.70
2018-04-15T03:29:32.547Z,959.69
2018-04-15T03:30:32.486Z,959.67
2018-04-15T03:31:32.423Z,959.70
2018-04-15T03:32:32.399Z,959.75
2018-04-15T03:33:32.293Z,959.70
2018-04-15T03:34:32.227Z,959.76
2018-04-15T03:35:32.167Z,959.72
2018-04-15T03:36:32.099Z,959.76
2018-04-15T03:37:32.036Z,959.75
2018-04-15T03:38:31.972Z,959.77
2018-04-15T03:39:31.906Z,959.73
2018-04-15T03:40:31.847Z,959.68
2018-04-15T03:41:31.793Z,959.78
2018-04-15T03:42:31.713Z,959.74
2018-04-15T03:43:31.649Z,959.77
2018-04-15T03:44:31.585Z,959.80
2018-04-15T03:45:31.519Z,959.79
2018-04-15T03:46:31.458Z,959.82
2018-04-15T03:47:31.393Z,959.78
2018-04-15T03:48:31.327Z,959.84
2018-04-15T03:49:31.261Z,959.84
2018-04-15T03:50:31.199Z,959.90
2018-04-15T03:51:31.134Z,959.92
2018-04-15T03:52:31.074Z,959.96
2018-04-15T03:53:31.007Z,959.93
2018-04-15T03:54:30.942Z,959.96
2018-04-15T03:55:30.878Z,959.93
2018-04-15T03:56:30.814Z,959.92
2018-04-15T03:57:30.749Z,959.94
2018-04-15T03:58:30.685Z,960.01
2018-04-15T03:59:30.622Z,960.01
2018-04-15T04:00:30.556Z,959.98
2018-04-15T04:01:30.494Z,960.06
2018-04-15T04:02:30.429Z,960.06
2018-04-15T04:03:30.365Z,960.07
2018-04-15T04:04:30.300Z,960.07
2018-04-15T04:05:30.234Z,960.05
2018-04-15T04:06:30.172Z,960.01
2018-04-15T04:07:30.108Z,960.02
2018-04-15T04:08:30.044Z,960.03
2018-04-15T04:09:29.978Z,960.06
2018-04-15T04:10:29.913Z,960.04
2018-04-15T04:11:29.852Z,960.06
2018-04-15T04:12:29.786Z,960.01
2018-04-15T04:13:29.721Z,960.05
2018-04-15T04:14:29.656Z,960.01
2018-04-15T04:15:29.594Z,960.01
2018-04-15T04:16:29.529Z,959.97
2018-04-15T04:17:29.465Z,959.95
2018-04-15T04:18:29.400Z,959.97
2018-04-15T04:19:29.339Z,959.93
2018-04-15T04:20:29.292Z,959.94
2018-04-15T04:21:29.252Z,959.93
2018-04-15T04:22:29.144Z,959.86
2018-04-15T04:23:29.081Z,959.87
2018-04-15T04:24:29.015Z,959.88
2018-04-15T04:25:28.951Z,959.87
2018-04-15T04:26:28.887Z,959.85
2018-04-15T04:27:28.824Z,959.83
2018-04-15T04:28:28.758Z,959.80
2018-04-15T04:29:28.694Z,959.81
2018-04-15T04:30:28.630Z,959.81
2018-04-15T04:31:28.568Z,959.84
2018-04-15T04:32:28.502Z,959.83
2018-04-15T04:33:28.440Z,959.84
2018-04-15T04:34:28.372Z,959.85
2018-04-15T04:35:28.310Z,959.87
2018-04-15T04:36:28.244Z,959.86
2018-04-15T04:37:28.182Z,959.88
2018-04-15T04:38:28.118Z,959.83
2018-04-15T04:39:28.053Z,959.86
2018-04-15T04:40:27.989Z,959.85
2018-04-15T04:41:27.923Z,959.86
2018-04-15T04:42:27.861Z,959.80
2018-04-15T04:43:27.797Z,959.79
2018-04-15T04:44:27.735Z,959.82
2018-04-15T04:45:27.664Z,959.78
2018-04-15T04:46:27.600Z,959.80
2018-04-15T04:47:27.539Z,959.80
2018-04-15T04:48:27.474Z,959.84
2018-04-15T04:49:27.410Z,959.84
2018-04-15T04:50:27.347Z,959.85
2018-04-15T04:51:27.282Z,959.91
2018-04-15T04:52:27.216Z,959.90
2018-04-15T04:53:27.154Z,959.91
2018-04-15T04:54:27.088Z,959.87
2018-04-15T04:55:27.026Z,959.87
2018-04-15T04:56:26.961Z,959.90
2018-04-15T04:57:26.896Z,959.88
2018-04-15T04:58:26.832Z,959.83
2018-04-15T04:59:26.770Z,959.78
2018-04-15T05:00:26.705Z,959.84
2018-04-15T05:01:26.638Z,959.77
2018-04-15T05:02:26.579Z,959.74
2018-04-15T05:03:26.510Z,959.77
2018-04-15T05:04:26.459Z,959.82
2018-04-15T05:05:26.381Z,959.79
2018-04-15T05:06:26.318Z,959.76
2018-04-15T05:07:26.255Z,959.75
2018-04-15T05:08:26.187Z,959.73
2018-04-15T05:09:26.122Z,959.75
2018-04-15T05:10:26.060Z,959.68
2018-04-15T05:11:25.996Z,959.66
2018-04-15T05:12:25.931Z,959.62
2018-04-15T05:13:25.870Z,959.57
2018-04-15T05:14:25.802Z,959.57
2018-04-15T05:15:25.737Z,959.53
2018-04-15T05:16:25.674Z,959.53
2018-04-15T05:17:25.609Z,959.55
2018-04-15T05:18:25.546Z,959.53
2018-04-15T05:19:25.483Z,959.51
2018-04-15T05:20:25.418Z,959.49
2018-04-15T05:21:25.354Z,959.56
2018-04-15T05:22:25.288Z,959.51
2018-04-15T05:23:25.226Z,959.55
2018-04-15T05:24:25.179Z,959.52
2018-04-15T05:25:25.129Z,959.57
2018-04-15T05:26:25.032Z,959.59
2018-04-15T05:27:24.968Z,959.55
2018-04-15T05:28:24.903Z,959.63
2018-04-15T05:29:24.851Z,959.59
2018-04-15T05:30:24.778Z,959.60
2018-04-15T05:31:24.716Z,959.60
2018-04-15T05:32:24.648Z,959.58
2018-04-15T05:33:24.584Z,959.58
2018-04-15T05:34:24.521Z,959.59
2018-04-15T05:35:24.453Z,959.59
2018-04-15T05:36:24.391Z,959.63
2018-04-15T05:37:24.325Z,959.66
2018-04-15T05:38:24.261Z,959.68
2018-04-15T05:39:24.198Z,959.70
2018-04-15T05:40:24.140Z,959.77
2018-04-15T05:41:24.069Z,959.80
2018-04-15T05:42:24.004Z,959.82
2018-04-15T05:43:23.942Z,959.87
2018-04-15T05:44:23.877Z,959.90
2018-04-15T05:45:23.813Z,959.92
2018-04-15T05:46:23.748Z,959.90
2018-04-15T05:47:23.718Z,959.96
2018-04-15T05:48:23.622Z,959.98
2018-04-15T05:49:23.557Z,959.98
2018-04-15T05:50:23.493Z,960.03
2018-04-15T05:51:23.429Z,960.06
2018-04-15T05:52:23.367Z,960.08
2018-04-15T05:53:23.302Z,960.09
2018-04-15T05:54:23.237Z,960.12
2018-04-15T05:55:23.172Z,960.05
2018-04-15T05:56:23.108Z,960.03
2018-04-15T05:57:23.042Z,960.06
2018-04-15T05:58:22.984Z,960.01
2018-04-15T05:59:22.919Z,960.02
2018-04-15T06:00:22.852Z,960.03
2018-04-15T06:01:22.790Z,960.07
2018-04-15T06:02:22.725Z,960.04
2018-04-15T06:03:22.666Z,960.09
2018-04-15T06:04:22.598Z,960.15
2018-04-15T06:05:22.534Z,960.09
2018-04-15T06:06:22.472Z,960.17
2018-04-15T06:07:22.411Z,960.16
2018-04-15T06:08:22.346Z,960.16
2018-04-15T06:09:22.278Z,960.19
2018-04-15T06:10:22.215Z,960.20
2018-04-15T06:11:22.159Z,960.16
2018-04-15T06:12:22.093Z,960.13
2018-04-15T06:13:22.026Z,960.13
2018-04-15T06:14:21.960Z,960.11
2018-04-15T06:15:21.914Z,960.12
2018-04-15T06:16:21.833Z,960.10
2018-04-15T06:17:21.768Z,960.11
2018-04-15T06:18:21.706Z,960.08
2018-04-15T06:19:21.644Z,960.10
2018-04-15T06:20:21.579Z,960.00
2018-04-15T06:21:21.515Z,960.03
2018-04-15T06:22:21.459Z,959.99
2018-04-15T06:23:21.386Z,959.95
2018-04-15T06:24:21.325Z,959.95
2018-04-15T06:25:21.257Z,959.92
2018-04-15T06:26:21.196Z,959.92
2018-04-15T06:27:21.135Z,959.87
2018-04-15T06:28:21.070Z,959.81
2018-04-15T06:29:21.008Z,959.81
2018-04-15T06:30:20.942Z,959.76
2018-04-15T06:31:20.879Z,959.80
2018-04-15T06:32:20.816Z,959.78
2018-04-15T06:33:20.754Z,959.80
2018-04-15T06:34:20.690Z,959.78
2018-04-15T06:35:20.627Z,959.77
2018-04-15T06:36:20.567Z,959.76
2018-04-15T06:37:20.499Z,959.76
2018-04-15T06:38:20.435Z,959.72
2018-04-15T06:39:20.371Z,959.70
2018-04-15T06:40:20.307Z,959.70
2018-04-15T06:41:20.244Z,959.72
2018-04-15T06:42:20.181Z,959.68
2018-04-15T06:43:20.118Z,959.68
2018-04-15T06:44:20.054Z,959.71
2018-04-15T06:45:20.019Z,959.74
2018-04-15T06:46:19.928Z,959.71
2018-04-15T06:47:19.869Z,959.70
2018-04-15T06:48:19.801Z,959.68
2018-04-15T06:49:19.793Z,959.70
2018-04-15T06:50:19.674Z,959.66
2018-04-15T06:51:19.612Z,959.63
2018-04-15T06:52:19.548Z,959.63
2018-04-15T06:53:19.491Z,959.59
2018-04-15T06:54:19.420Z,959.53
2018-04-15T06:55:19.358Z,959.53
2018-04-15T06:56:19.298Z,959.49
2018-04-15T06:57:19.231Z,959.50
2018-04-15T06:58:19.172Z,959.46
2018-04-15T06:59:19.106Z,959.45
2018-04-15T07:00:19.040Z,959.41
2018-04-15T07:01:18.977Z,959.45
2018-04-15T07:02:18.916Z,959.44
2018-04-15T07:03:18.852Z,959.46
2018-04-15T07:04:18.789Z,959.46
2018-04-15T07:05:18.724Z,959.47
2018-04-15T07:06:18.663Z,959.51
2018-04-15T07:07:18.597Z,959.49
2018-04-15T07:08:18.536Z,959.52
2018-04-15T07:09:18.475Z,959.50
2018-04-15T07:10:18.407Z,959.51
2018-04-15T07:11:18.344Z,959.47
2018-04-15T07:12:18.282Z,959.46
2018-04-15T07:13:18.220Z,959.46
2018-04-15T07:14:18.156Z,959.50
2018-04-15T07:15:18.095Z,959.45
2018-04-15T07:16:18.030Z,959.43
2018-04-15T07:17:17.968Z,959.45
2018-04-15T07:18:17.907Z,959.40
2018-04-15T07:19:17.841Z,959.41
2018-04-15T07:20:17.778Z,959.46
2018-04-15T07:21:17.716Z,959.47
2018-04-15T07:22:17.648Z,959.47
2018-04-15T07:23:17.588Z,959.46
2018-04-15T07:24:17.525Z,959.43
2018-04-15T07:25:17.462Z,959.49
2018-04-15T07:26:17.398Z,959.46
2018-04-15T07:27:17.336Z,959.48
2018-04-15T07:28:17.277Z,959.45
2018-04-15T07:29:17.211Z,959.47
2018-04-15T07:30:17.165Z,959.46
2018-04-15T07:31:17.084Z,959.46
2018-04-15T07:32:17.021Z,959.44
2018-04-15T07:33:16.959Z,959.44
2018-04-15T07:34:16.896Z,959.43
2018-04-15T07:35:16.837Z,959.43
2018-04-15T07:36:16.771Z,959.43
2018-04-15T07:37:16.706Z,959.39
2018-04-15T07:38:16.645Z,959.43
2018-04-15T07:39:16.583Z,959.44
2018-04-15T07:40:16.518Z,959.40
2018-04-15T07:41:16.458Z,959.42
2018-04-15T07:42:16.391Z,959.41
2018-04-15T07:43:16.337Z,959.40
2018-04-15T07:44:16.268Z,959.41
2018-04-15T07:45:16.199Z,959.38
2018-04-15T07:46:16.138Z,959.35
2018-04-15T07:47:16.086Z,959.35
2018-04-15T07:48:16.014Z,959.37
2018-04-15T07:49:15.952Z,959.39
2018-04-15T07:50:15.890Z,959.36
2018-04-15T07:51:15.827Z,959.38
2018-04-15T07:52:15.765Z,959.39
2018-04-15T07:53:15.702Z,959.38
2018-04-15T07:54:15.638Z,959.40
2018-04-15T07:55:15.575Z,959.34
2018-04-15T07:56:15.563Z,959.37
2018-04-15T07:57:15.451Z,959.38
2018-04-15T07:58:15.386Z,959.38
2018-04-15T07:59:15.325Z,959.36
2018-04-15T08:00:15.261Z,959.32
2018-04-15T08:01:15.199Z,959.35
2018-04-15T08:02:15.182Z,959.33
2018-04-15T08:03:15.074Z,959.36
2018-04-15T08:04:15.012Z,959.36
2018-04-15T08:05:14.952Z,959.34
2018-04-15T08:06:14.886Z,959.34
2018-04-15T08:07:14.825Z,959.36
2018-04-15T08:08:14.773Z,959.37
2018-04-15T08:09:14.699Z,959.37
2018-04-15T08:10:14.637Z,959.40
2018-04-15T08:11:14.585Z,959.39
2018-04-15T08:12:14.512Z,959.40
2018-04-15T08:13:14.451Z,959.40
2018-04-15T08:14:14.388Z,959.43
2018-04-15T08:15:14.328Z,959.43
2018-04-15T08:16:14.263Z,959.42
2018-04-15T08:17:14.238Z,959.42
2018-04-15T08:18:14.140Z,959.42
2018-04-15T08:19:14.078Z,959.42
2018-04-15T08:20:14.019Z,959.38
2018-04-15T08:21:13.950Z,959.36
2018-04-15T08:22:13.891Z,959.37
2018-04-15T08:23:13.830Z,959.37
2018-04-15T08:24:13.767Z,959.29
2018-04-15T08:25:13.725Z,959.28
2018-04-15T08:26:13.645Z,959.23
2018-04-15T08:27:13.582Z,959.22
2018-04-15T08:28:13.517Z,959.23
2018-04-15T08:29:13.456Z,959.24
2018-04-15T08:30:13.396Z,959.23
2018-04-15T08:31:13.352Z,959.20
2018-04-15T08:32:13.274Z,959.22
2018-04-15T08:33:13.217Z,959.25
2018-04-15T08:34:13.155Z,959.24
2018-04-15T08:35:13.088Z,959.29
2018-04-15T08:36:13.028Z,959.26
2018-04-15T08:37:12.964Z,959.33
2018-04-15T08:38:12.904Z,959.33
2018-04-15T08:39:12.845Z,959.33
2018-04-15T08:40:12.778Z,959.31
2018-04-15T08:41:12.720Z,959.31
2018-04-15T08:42:12.659Z,959.30
2018-04-15T08:43:12.600Z,959.24
2018-04-15T08:44:12.533Z,959.25
2018-04-15T08:45:12.473Z,959.26
2018-04-15T08:46:12.412Z,959.27
2018-04-15T08:47:12.353Z,959.28
2018-04-15T08:48:12.290Z,959.27
2018-04-15T08:49:12.227Z,959.31
2018-04-15T08:50:12.167Z,959.31
2018-04-15T08:51:12.107Z,959.31
2018-04-15T08:52:12.049Z,959.33
2018-04-15T08:53:11.986Z,959.32
2018-04-15T08:54:11.922Z,959.34
2018-04-15T08:55:11.862Z,959.33
2018-04-15T08:56:11.801Z,959.36
2018-04-15T08:57:11.741Z,959.33
2018-04-15T08:58:11.678Z,959.33
2018-04-15T08:59:11.616Z,959.37
2018-04-15T09:00:11.554Z,959.32
2018-04-15T09:01:11.494Z,959.29
2018-04-15T09:02:11.434Z,959.30
2018-04-15T09:03:11.375Z,959.35
2018-04-15T09:04:11.312Z,959.33
2018-04-15T09:05:11.255Z,959.29
2018-04-15T09:06:11.187Z,959.33
2018-04-15T09:07:11.130Z,959.28
2018-04-15T09:08:11.068Z,959.29
2018-04-15T09:09:11.006Z,959.33
2018-04-15T09:10:10.949Z,959.32
2018-04-15T09:11:10.886Z,959.33
2018-04-15T09:12:10.824Z,959.33
2018-04-15T09:13:10.762Z,959.34
2018-04-15T09:14:10.700Z,959.32
2018-04-15T09:15:10.640Z,959.32
2018-04-15T09:16:10.578Z,959.31
2018-04-15T09:17:10.516Z,959.33
2018-04-15T09:18:10.497Z,959.33
2018-04-15T09:19:10.397Z,959.34
2018-04-15T09:20:10.336Z,959.35
2018-04-15T09:21:10.274Z,959.33
2018-04-15T09:22:10.212Z,959.32
2018-04-15T09:23:10.159Z,959.34
2018-04-15T09:24:10.092Z,959.30
2018-04-15T09:25:10.030Z,959.32
2018-04-15T09:26:09.970Z,959.27
2018-04-15T09:27:09.923Z,959.22
2018-04-15T09:28:09.851Z,959.22
2018-04-15T09:29:09.788Z,959.20
2018-04-15T09:30:09.794Z,959.20
2018-04-15T09:31:09.667Z,959.21
2018-04-15T09:32:09.609Z,959.19
2018-04-15T09:33:09.546Z,959.13
2018-04-15T09:34:09.502Z,959.15
2018-04-15T09:35:09.426Z,959.15
2018-04-15T09:36:09.365Z,959.12
2018-04-15T09:37:09.308Z,959.12
2018-04-15T09:38:09.248Z,959.10
2018-04-15T09:39:09.183Z,959.13
2018-04-15T09:40:09.126Z,959.12
2018-04-15T09:41:09.064Z,959.12
2018-04-15T09:42:09.004Z,959.14
2018-04-15T09:43:08.946Z,959.12
2018-04-15T09:44:08.883Z,959.17
2018-04-15T09:45:08.819Z,959.11
2018-04-15T09:46:08.762Z,959.13
2018-04-15T09:47:08.706Z,959.16
2018-04-15T09:48:08.646Z,959.19
2018-04-15T09:49:08.583Z,959.18
2018-04-15T09:50:08.523Z,959.12
2018-04-15T09:51:08.465Z,959.12
2018-04-15T09:52:08.404Z,959.07
2018-04-15T09:53:08.344Z,959.14
2018-04-15T09:54:08.288Z,959.07
2018-04-15T09:55:08.225Z,959.12
2018-04-15T09:56:08.165Z,959.11
2018-04-15T09:57:08.111Z,959.12
2018-04-15T09:58:08.043Z,959.18
2018-04-15T09:59:08.033Z,959.18
2018-04-15T10:00:07.928Z,959.20
2018-04-15T10:01:07.866Z,959.19
2018-04-15T10:02:07.805Z,959.21
2018-04-15T10:03:07.749Z,959.13
2018-04-15T10:04:07.701Z,959.15
2018-04-15T10:05:07.625Z,959.12
2018-04-15T10:06:07.569Z,959.12
2018-04-15T10:07:07.509Z,959.10
2018-04-15T10:08:07.449Z,959.09
2018-04-15T10:09:07.396Z,959.10
2018-04-15T10:10:07.332Z,959.06
2018-04-15T10:11:07.272Z,959.12
2018-04-15T10:12:07.215Z,959.09
2018-04-15T10:13:07.155Z,959.09
2018-04-15T10:14:07.097Z,959.06
2018-04-15T10:15:07.038Z,959.10
2018-04-15T10:16:06.977Z,959.09
2018-04-15T10:17:06.919Z,959.13
2018-04-15T10:18:06.860Z,959.15
2018-04-15T10:19:06.798Z,959.14
2018-04-15T10:20:06.743Z,959.13
2018-04-15T10:21:06.687Z,959.17
2018-04-15T10:22:06.630Z,959.11
2018-04-15T10:23:06.568Z,959.13
2018-04-15T10:24:06.574Z,959.13
2018-04-15T10:25:06.455Z,959.11
2018-04-15T10:26:06.387Z,959.08
2018-04-15T10:27:06.334Z,959.06
2018-04-15T10:28:06.274Z,959.00
2018-04-15T10:29:06.215Z,958.98
2018-04-15T10:30:06.159Z,958.94
2018-04-15T10:31:06.103Z,958.93
2018-04-15T10:32:06.039Z,958.92
2018-04-15T10:33:05.981Z,958.91
2018-04-15T10:34:05.920Z,958.89
2018-04-15T10:35:05.866Z,958.88
2018-04-15T10:36:05.805Z,958.87
2018-04-15T10:37:05.748Z,958.90
2018-04-15T10:38:05.691Z,958.92
2018-04-15T10:39:05.634Z,958.91
2018-04-15T10:40:05.574Z,958.86
2018-04-15T10:41:05.520Z,958.87
2018-04-15T10:42:05.458Z,958.83
2018-04-15T10:43:05.398Z,958.87
2018-04-15T10:44:05.342Z,958.88
2018-04-15T10:45:05.286Z,958.84
2018-04-15T10:46:05.266Z,958.88
2018-04-15T10:47:05.167Z,958.88
2018-04-15T10:48:05.112Z,958.90
2018-04-15T10:49:05.049Z,958.92
2018-04-15T10:50:04.993Z,958.91
2018-04-15T10:51:04.934Z,958.96
2018-04-15T10:52:04.875Z,958.91
2018-04-15T10:53:04.818Z,958.98
2018-04-15T10:54:04.759Z,958.94
2018-04-15T10:55:04.702Z,958.92
2018-04-15T10:56:04.653Z,958.92
2018-04-15T10:57:04.583Z,958.90
2018-04-15T10:58:04.524Z,958.86
2018-04-15T10:59:04.468Z,958.86
2018-04-15T11:00:04.409Z,958.81
2018-04-15T11:01:04.357Z,958.86
2018-04-15T11:02:04.293Z,958.82
2018-04-15T11:03:04.240Z,958.86
2018-04-15T11:04:04.178Z,958.89
2018-04-15T11:05:04.118Z,958.85
2018-04-15T11:06:04.062Z,958.87
2018-04-15T11:07:04.004Z,958.84
2018-04-15T11:08:03.946Z,958.81
2018-04-15T11:09:03.889Z,958.87
2018-04-15T11:10:03.828Z,958.84
2018-04-15T11:11:03.773Z,958.84
2018-04-15T11:12:03.712Z,958.82
2018-04-15T11:13:03.654Z,958.76
2018-04-15T11:14:03.615Z,958.80
2018-04-15T11:15:03.538Z,958.79
2018-04-15T11:16:03.480Z,958.78
2018-04-15T11:17:03.425Z,958.77
2018-04-15T11:18:03.364Z,958.75
2018-04-15T11:19:03.307Z,958.73
2018-04-15T11:20:03.314Z,958.66
2018-04-15T11:21:03.191Z,958.67
2018-04-15T11:22:03.135Z,958.63
2018-04-15T11:23:03.076Z,958.60
2018-04-15T11:24:03.015Z,958.61
2018-04-15T11:25:02.957Z,958.57
2018-04-15T11:26:02.900Z,958.55
2018-04-15T11:27:02.842Z,958.51
2018-04-15T11:28:02.785Z,958.51
2018-04-15T11:29:02.726Z,958.45
2018-04-15T11:30:02.666Z,958.44
2018-04-15T11:31:02.612Z,958.47
2018-04-15T11:32:02.554Z,958.40
2018-04-15T11:33:02.495Z,958.36
2018-04-15T11:34:02.488Z,958.36
2018-04-15T11:35:02.378Z,958.34
2018-04-15T11:36:02.319Z,958.36
2018-04-15T11:37:02.261Z,958.29
2018-04-15T11:38:02.204Z,958.32
2018-04-15T11:39:02.145Z,958.29
2018-04-15T11:40:02.092Z,958.27
2018-04-15T11:41:02.031Z,958.24
2018-04-15T11:42:02.004Z,958.22
2018-04-15T11:43:01.914Z,958.20
2018-04-15T11:44:01.854Z,958.20
2018-04-15T11:45:01.797Z,958.15
2018-04-15T11:46:01.739Z,958.11
2018-04-15T11:47:01.681Z,958.13
2018-04-15T11:48:01.626Z,958.10
2018-04-15T11:49:01.564Z,958.04
2018-04-15T11:50:01.506Z,958.06
2018-04-15T11:51:01.448Z,958.03
2018-04-15T11:52:01.393Z,958.00
2018-04-15T11:53:01.334Z,958.03
2018-04-15T11:54:01.276Z,958.03
2018-04-15T11:55:01.227Z,958.01
2018-04-15T11:56:01.162Z,958.04
2018-04-15T11:57:01.106Z,958.02
2018-04-15T11:58:01.078Z,958.00
2018-04-15T11:59:00.995Z,958.00
2018-04-15T12:00:00.929Z,957.98
2018-04-15T12:01:00.870Z,957.99
2018-04-15T12:02:00.813Z,957.94
2018-04-15T12:03:00.751Z,957.95
2018-04-15T12:04:00.692Z,958.00
2018-04-15T12:05:00.641Z,957.91
2018-04-15T12:06:00.581Z,957.91
2018-04-15T12:07:00.521Z,957.85
2018-04-15T12:08:00.464Z,957.83
2018-04-15T12:09:00.407Z,957.80
2018-04-15T12:10:00.348Z,957.79
2018-04-15T12:11:00.298Z,957.77
2018-04-15T12:12:00.229Z,957.73
2018-04-15T12:13:00.172Z,957.77
2018-04-15T12:14:00.115Z,957.79
2018-04-15T12:15:00.061Z,957.77
2018-04-15T12:16:00.000Z,957.78
2018-04-15T12:16:59.940Z,957.74
2018-04-15T12:17:59.882Z,957.80
2018-04-15T12:18:59.823Z,957.71
2018-04-15T12:19:59.771Z,957.65
2018-04-15T12:20:59.710Z,957.62
2018-04-15T12:21:59.649Z,957.54
2018-04-15T12:22:59.592Z,957.55
2018-04-15T12:23:59.537Z,957.55
2018-04-15T12:24:59.475Z,957.52
2018-04-15T12:25:59.428Z,957.48
2018-04-15T12:26:59.359Z,957.50
2018-04-15T12:27:59.302Z,957.46